Flight Briefing for CPX317

Departure Arrival
Portland International Airport (KPDX)
Click to view FAA NOTAMS
Phoenix Sky Harbor International Airport (KPHX)
Click to view FAA NOTAMS
Departure Time Arrival Time
N/A N/A
Aircraft Distance
B767-300BDSF 878nm
Departure METAR Arrival METAR
KPDX 180553Z 29003KT 10SM FEW040 FEW110 02/M01 A3033 RMK AO2 SLP269 T00221006 10061 20017 53015 KPHX 180551Z 17008KT 10SM BKN100 BKN120 11/M02 A2992 RMK AO2 SLP126 T01061017 10144 20100 53001
Suggested Route
BTG J159 DSD REO J523 ELY WINEN Q35 CORKR TENTS BRUSR1


View recent IFR Routes data
Notes



Charts and Procedures

Charts for KPDX
No chart available
Charts for KPHX
No chart available

Ventusky Weather